Athens, Wisconsin
Current Conditions -  °F | °C
As of 12:35 PM on Thursday 27 Nov 2014 (Local Time) from KMDZ Reporting Station
Clear Clear  
Wind Chill: -18°   Ceiling: Unl
Heat Index: -13°   Visibility: 10mi
Dew Point: -18°   Wind: 6mph
Humidity: 66%   Direction: 350°N
Pressure: 30.33"   Gusts: NA
Location:  45.03°N, 90.07°W
Report Text: KMDZ 271835Z AUTO 35005KT 10SM CLR M12/M18 A3033 RMK AO2 T11251176
Loading
Personal Weather Stations






























Interactive Weather Map New forecast layout! Learn more

10-Day Weather Forecast

Advertisements
Track Severe Weather on mobile